sensor_id;sensor_type;location;lat;lon;timestamp;temperature;humidity
21035;DHT22;10676;50.848;3.272;2023-04-06T00:01:47;8.30;99.90
21035;DHT22;10676;50.848;3.272;2023-04-06T00:04:13;8.30;99.90
21035;DHT22;10676;50.848;3.272;2023-04-06T00:06:38;8.30;99.90
21035;DHT22;10676;50.848;3.272;2023-04-06T00:09:04;8.30;99.90
21035;DHT22;10676;50.848;3.272;2023-04-06T00:11:30;8.30;99.90
21035;DHT22;10676;50.848;3.272;2023-04-06T00:13:56;8.30;99.90
21035;DHT22;10676;50.848;3.272;2023-04-06T00:16:21;8.40;99.90
21035;DHT22;10676;50.848;3.272;2023-04-06T00:18:47;8.40;99.90
21035;DHT22;10676;50.848;3.272;2023-04-06T00:21:13;8.40;99.90
21035;DHT22;10676;50.848;3.272;2023-04-06T00:23:40;8.40;99.90
21035;DHT22;10676;50.848;3.272;2023-04-06T00:26:06;8.40;99.90
21035;DHT22;10676;50.848;3.272;2023-04-06T00:28:32;8.40;99.90
21035;DHT22;10676;50.848;3.272;2023-04-06T00:30:57;8.40;99.90
21035;DHT22;10676;50.848;3.272;2023-04-06T00:33:23;8.50;99.90
21035;DHT22;10676;50.848;3.272;2023-04-06T00:35:49;8.50;99.90
21035;DHT22;10676;50.848;3.272;2023-04-06T00:38:15;8.50;99.90
21035;DHT22;10676;50.848;3.272;2023-04-06T00:40:41;8.50;99.90
21035;DHT22;10676;50.848;3.272;2023-04-06T00:43:09;8.50;99.90
21035;DHT22;10676;50.848;3.272;2023-04-06T00:45:37;8.50;99.90
21035;DHT22;10676;50.848;3.272;2023-04-06T00:48:04;8.50;99.90
21035;DHT22;10676;50.848;3.272;2023-04-06T00:50:30;8.50;99.90
21035;DHT22;10676;50.848;3.272;2023-04-06T00:52:56;8.50;99.90
21035;DHT22;10676;50.848;3.272;2023-04-06T00:55:21;8.50;99.90
21035;DHT22;10676;50.848;3.272;2023-04-06T00:57:47;8.60;99.90
21035;DHT22;10676;50.848;3.272;2023-04-06T01:00:14;8.50;99.90
21035;DHT22;10676;50.848;3.272;2023-04-06T01:02:40;8.50;99.90
21035;DHT22;10676;50.848;3.272;2023-04-06T01:05:06;8.50;99.90
21035;DHT22;10676;50.848;3.272;2023-04-06T01:07:32;8.50;99.90
21035;DHT22;10676;50.848;3.272;2023-04-06T01:09:58;8.50;99.90
21035;DHT22;10676;50.848;3.272;2023-04-06T01:12:24;8.50;99.90
21035;DHT22;10676;50.848;3.272;2023-04-06T01:14:50;8.50;99.90
21035;DHT22;10676;50.848;3.272;2023-04-06T01:17:16;8.50;99.90
21035;DHT22;10676;50.848;3.272;2023-04-06T01:19:41;8.50;99.90
21035;DHT22;10676;50.848;3.272;2023-04-06T01:22:07;8.50;99.90
21035;DHT22;10676;50.848;3.272;2023-04-06T01:24:33;8.50;99.90
21035;DHT22;10676;50.848;3.272;2023-04-06T01:26:59;8.60;99.90
21035;DHT22;10676;50.848;3.272;2023-04-06T01:29:26;8.60;99.90
21035;DHT22;10676;50.848;3.272;2023-04-06T01:31:51;8.60;99.90
21035;DHT22;10676;50.848;3.272;2023-04-06T01:34:17;8.60;99.90
21035;DHT22;10676;50.848;3.272;2023-04-06T01:36:43;8.70;99.90
21035;DHT22;10676;50.848;3.272;2023-04-06T01:39:09;8.70;99.90
21035;DHT22;10676;50.848;3.272;2023-04-06T01:41:35;8.70;99.90
21035;DHT22;10676;50.848;3.272;2023-04-06T01:44:01;8.80;99.90
21035;DHT22;10676;50.848;3.272;2023-04-06T01:46:27;8.70;99.90
21035;DHT22;10676;50.848;3.272;2023-04-06T01:48:53;8.70;99.90
21035;DHT22;10676;50.848;3.272;2023-04-06T01:51:19;8.70;99.90
21035;DHT22;10676;50.848;3.272;2023-04-06T01:53:44;8.70;99.90
21035;DHT22;10676;50.848;3.272;2023-04-06T01:56:10;8.70;99.90
21035;DHT22;10676;50.848;3.272;2023-04-06T01:58:36;8.70;99.90
21035;DHT22;10676;50.848;3.272;2023-04-06T02:01:02;8.70;99.90
21035;DHT22;10676;50.848;3.272;2023-04-06T02:03:27;8.70;99.90
21035;DHT22;10676;50.848;3.272;2023-04-06T02:05:53;8.70;99.90
21035;DHT22;10676;50.848;3.272;2023-04-06T02:08:19;8.70;99.90
21035;DHT22;10676;50.848;3.272;2023-04-06T02:10:44;8.70;99.90
21035;DHT22;10676;50.848;3.272;2023-04-06T02:13:10;8.70;99.90
21035;DHT22;10676;50.848;3.272;2023-04-06T02:15:36;8.70;99.90
21035;DHT22;10676;50.848;3.272;2023-04-06T02:18:01;8.70;99.90
21035;DHT22;10676;50.848;3.272;2023-04-06T02:20:27;8.70;99.90
21035;DHT22;10676;50.848;3.272;2023-04-06T02:22:52;8.70;99.90
21035;DHT22;10676;50.848;3.272;2023-04-06T02:25:18;8.70;99.90
21035;DHT22;10676;50.848;3.272;2023-04-06T02:27:44;8.70;99.90
21035;DHT22;10676;50.848;3.272;2023-04-06T02:30:10;8.70;99.90
21035;DHT22;10676;50.848;3.272;2023-04-06T02:32:35;8.80;99.90
21035;DHT22;10676;50.848;3.272;2023-04-06T02:35:01;8.70;99.90
21035;DHT22;10676;50.848;3.272;2023-04-06T02:37:27;8.80;99.90
21035;DHT22;10676;50.848;3.272;2023-04-06T02:39:52;8.80;99.90
21035;DHT22;10676;50.848;3.272;2023-04-06T02:42:18;8.80;99.90
21035;DHT22;10676;50.848;3.272;2023-04-06T02:44:44;8.80;99.90
21035;DHT22;10676;50.848;3.272;2023-04-06T02:47:10;8.80;99.90
21035;DHT22;10676;50.848;3.272;2023-04-06T02:49:36;8.80;99.90
21035;DHT22;10676;50.848;3.272;2023-04-06T02:52:02;8.80;99.90
21035;DHT22;10676;50.848;3.272;2023-04-06T02:54:28;8.80;99.90
21035;DHT22;10676;50.848;3.272;2023-04-06T02:56:53;8.80;99.90
21035;DHT22;10676;50.848;3.272;2023-04-06T02:59:19;8.80;99.90
21035;DHT22;10676;50.848;3.272;2023-04-06T03:01:45;8.90;99.90
21035;DHT22;10676;50.848;3.272;2023-04-06T03:04:10;8.90;99.90
21035;DHT22;10676;50.848;3.272;2023-04-06T03:06:36;8.90;99.90
21035;DHT22;10676;50.848;3.272;2023-04-06T03:09:02;8.90;99.90
21035;DHT22;10676;50.848;3.272;2023-04-06T03:11:28;8.90;99.90
21035;DHT22;10676;50.848;3.272;2023-04-06T03:13:54;9.00;99.90
21035;DHT22;10676;50.848;3.272;2023-04-06T03:16:20;9.00;99.90
21035;DHT22;10676;50.848;3.272;2023-04-06T03:18:45;9.00;99.90
21035;DHT22;10676;50.848;3.272;2023-04-06T03:21:15;9.00;99.90
21035;DHT22;10676;50.848;3.272;2023-04-06T03:23:41;9.00;99.90
21035;DHT22;10676;50.848;3.272;2023-04-06T03:26:07;9.00;99.90
21035;DHT22;10676;50.848;3.272;2023-04-06T03:28:32;9.00;99.90
21035;DHT22;10676;50.848;3.272;2023-04-06T03:30:58;9.00;99.90
21035;DHT22;10676;50.848;3.272;2023-04-06T03:33:24;9.00;99.90
21035;DHT22;10676;50.848;3.272;2023-04-06T03:35:52;9.10;99.90
21035;DHT22;10676;50.848;3.272;2023-04-06T03:38:18;9.00;99.90
21035;DHT22;10676;50.848;3.272;2023-04-06T03:40:44;9.10;99.90
21035;DHT22;10676;50.848;3.272;2023-04-06T03:43:09;9.10;99.90
21035;DHT22;10676;50.848;3.272;2023-04-06T03:45:35;9.10;99.90
21035;DHT22;10676;50.848;3.272;2023-04-06T03:48:01;9.20;99.90
21035;DHT22;10676;50.848;3.272;2023-04-06T03:50:26;9.20;99.90
21035;DHT22;10676;50.848;3.272;2023-04-06T03:52:52;9.20;99.90
21035;DHT22;10676;50.848;3.272;2023-04-06T03:55:18;9.20;99.90
21035;DHT22;10676;50.848;3.272;2023-04-06T03:57:43;9.20;99.90
21035;DHT22;10676;50.848;3.272;2023-04-06T04:00:09;9.20;99.90
21035;DHT22;10676;50.848;3.272;2023-04-06T04:02:35;9.20;99.90
21035;DHT22;10676;50.848;3.272;2023-04-06T04:05:01;9.20;99.90
21035;DHT22;10676;50.848;3.272;2023-04-06T04:07:27;9.20;99.90
21035;DHT22;10676;50.848;3.272;2023-04-06T04:09:52;9.10;99.90
21035;DHT22;10676;50.848;3.272;2023-04-06T04:12:18;9.00;99.90
21035;DHT22;10676;50.848;3.272;2023-04-06T04:14:44;9.00;99.90
21035;DHT22;10676;50.848;3.272;2023-04-06T04:17:09;9.00;99.90
21035;DHT22;10676;50.848;3.272;2023-04-06T04:19:35;8.90;99.90
21035;DHT22;10676;50.848;3.272;2023-04-06T04:22:01;8.80;99.90
21035;DHT22;10676;50.848;3.272;2023-04-06T04:24:29;8.80;99.90
21035;DHT22;10676;50.848;3.272;2023-04-06T04:26:55;8.80;99.90
21035;DHT22;10676;50.848;3.272;2023-04-06T04:29:22;8.70;99.90
21035;DHT22;10676;50.848;3.272;2023-04-06T04:31:48;8.70;99.90
21035;DHT22;10676;50.848;3.272;2023-04-06T04:34:17;8.70;99.90
21035;DHT22;10676;50.848;3.272;2023-04-06T04:36:45;8.70;99.90
21035;DHT22;10676;50.848;3.272;2023-04-06T04:39:14;8.60;99.90
21035;DHT22;10676;50.848;3.272;2023-04-06T04:41:40;8.60;99.90
21035;DHT22;10676;50.848;3.272;2023-04-06T04:44:07;8.50;99.90
21035;DHT22;10676;50.848;3.272;2023-04-06T04:46:32;8.40;99.90
21035;DHT22;10676;50.848;3.272;2023-04-06T04:48:59;8.50;99.90
21035;DHT22;10676;50.848;3.272;2023-04-06T04:51:25;8.40;99.90
21035;DHT22;10676;50.848;3.272;2023-04-06T04:53:51;8.30;99.90
21035;DHT22;10676;50.848;3.272;2023-04-06T04:56:16;8.40;99.90
21035;DHT22;10676;50.848;3.272;2023-04-06T04:58:42;8.40;99.90
21035;DHT22;10676;50.848;3.272;2023-04-06T05:01:08;8.40;99.90
21035;DHT22;10676;50.848;3.272;2023-04-06T05:03:34;8.40;99.90
21035;DHT22;10676;50.848;3.272;2023-04-06T05:06:01;8.40;99.90
21035;DHT22;10676;50.848;3.272;2023-04-06T05:08:26;8.40;99.90
21035;DHT22;10676;50.848;3.272;2023-04-06T05:10:52;8.40;99.90
21035;DHT22;10676;50.848;3.272;2023-04-06T05:13:18;8.30;99.90
21035;DHT22;10676;50.848;3.272;2023-04-06T05:15:43;8.30;99.90
21035;DHT22;10676;50.848;3.272;2023-04-06T05:18:10;8.40;99.90
21035;DHT22;10676;50.848;3.272;2023-04-06T05:20:39;8.30;99.90
21035;DHT22;10676;50.848;3.272;2023-04-06T05:23:05;8.40;99.90
21035;DHT22;10676;50.848;3.272;2023-04-06T05:25:31;8.40;99.90
21035;DHT22;10676;50.848;3.272;2023-04-06T05:27:57;8.40;99.90
21035;DHT22;10676;50.848;3.272;2023-04-06T05:30:23;8.40;99.90
21035;DHT22;10676;50.848;3.272;2023-04-06T05:32:49;8.40;99.90
21035;DHT22;10676;50.848;3.272;2023-04-06T05:35:15;8.40;99.90
21035;DHT22;10676;50.848;3.272;2023-04-06T05:37:42;8.40;99.90
21035;DHT22;10676;50.848;3.272;2023-04-06T05:40:09;8.50;99.90
21035;DHT22;10676;50.848;3.272;2023-04-06T05:42:41;8.50;99.90
21035;DHT22;10676;50.848;3.272;2023-04-06T05:45:08;8.50;99.90
21035;DHT22;10676;50.848;3.272;2023-04-06T05:47:35;8.50;99.90
21035;DHT22;10676;50.848;3.272;2023-04-06T05:50:00;8.60;99.90
21035;DHT22;10676;50.848;3.272;2023-04-06T05:52:26;8.60;99.90
21035;DHT22;10676;50.848;3.272;2023-04-06T05:54:52;8.60;99.90
21035;DHT22;10676;50.848;3.272;2023-04-06T05:57:17;8.60;99.90
21035;DHT22;10676;50.848;3.272;2023-04-06T05:59:43;8.70;99.90
21035;DHT22;10676;50.848;3.272;2023-04-06T06:02:09;8.70;99.90
21035;DHT22;10676;50.848;3.272;2023-04-06T06:04:35;8.70;99.90
21035;DHT22;10676;50.848;3.272;2023-04-06T06:07:00;8.70;99.90
21035;DHT22;10676;50.848;3.272;2023-04-06T06:09:26;8.80;99.90
21035;DHT22;10676;50.848;3.272;2023-04-06T06:11:52;8.80;99.90
21035;DHT22;10676;50.848;3.272;2023-04-06T06:14:18;8.90;99.90
21035;DHT22;10676;50.848;3.272;2023-04-06T06:16:43;8.90;99.90
21035;DHT22;10676;50.848;3.272;2023-04-06T06:19:09;8.90;99.90
21035;DHT22;10676;50.848;3.272;2023-04-06T06:21:35;9.00;99.90
21035;DHT22;10676;50.848;3.272;2023-04-06T06:24:00;9.00;99.90
21035;DHT22;10676;50.848;3.272;2023-04-06T06:26:26;9.10;99.90
21035;DHT22;10676;50.848;3.272;2023-04-06T06:28:52;9.10;99.90
21035;DHT22;10676;50.848;3.272;2023-04-06T06:31:17;9.20;99.90
21035;DHT22;10676;50.848;3.272;2023-04-06T06:33:46;9.20;99.90
21035;DHT22;10676;50.848;3.272;2023-04-06T06:36:13;9.20;99.90
21035;DHT22;10676;50.848;3.272;2023-04-06T06:38:38;9.30;99.90
21035;DHT22;10676;50.848;3.272;2023-04-06T06:41:04;9.30;99.90
21035;DHT22;10676;50.848;3.272;2023-04-06T06:43:30;9.30;99.90
21035;DHT22;10676;50.848;3.272;2023-04-06T06:45:56;9.30;99.90
21035;DHT22;10676;50.848;3.272;2023-04-06T06:48:21;9.30;99.90
21035;DHT22;10676;50.848;3.272;2023-04-06T06:50:48;9.30;99.90
21035;DHT22;10676;50.848;3.272;2023-04-06T06:53:14;9.30;99.90
21035;DHT22;10676;50.848;3.272;2023-04-06T06:55:40;9.30;99.90
21035;DHT22;10676;50.848;3.272;2023-04-06T06:58:06;9.30;99.90
21035;DHT22;10676;50.848;3.272;2023-04-06T07:00:32;9.30;99.90
21035;DHT22;10676;50.848;3.272;2023-04-06T07:02:58;9.30;99.90
21035;DHT22;10676;50.848;3.272;2023-04-06T07:05:23;9.30;99.90
21035;DHT22;10676;50.848;3.272;2023-04-06T07:07:49;9.30;99.90
21035;DHT22;10676;50.848;3.272;2023-04-06T07:10:15;9.30;99.90
21035;DHT22;10676;50.848;3.272;2023-04-06T07:12:40;9.30;99.90
21035;DHT22;10676;50.848;3.272;2023-04-06T07:15:07;9.30;99.90
21035;DHT22;10676;50.848;3.272;2023-04-06T07:17:32;9.30;99.90
21035;DHT22;10676;50.848;3.272;2023-04-06T07:19:58;9.40;99.90
21035;DHT22;10676;50.848;3.272;2023-04-06T07:22:24;9.50;99.90
21035;DHT22;10676;50.848;3.272;2023-04-06T07:24:50;9.50;99.90
21035;DHT22;10676;50.848;3.272;2023-04-06T07:27:15;9.50;99.90
21035;DHT22;10676;50.848;3.272;2023-04-06T07:29:42;9.60;99.90
21035;DHT22;10676;50.848;3.272;2023-04-06T07:32:08;9.70;99.90
21035;DHT22;10676;50.848;3.272;2023-04-06T07:34:34;9.80;99.90
21035;DHT22;10676;50.848;3.272;2023-04-06T07:36:59;9.90;99.90
21035;DHT22;10676;50.848;3.272;2023-04-06T07:39:26;10.00;99.90
21035;DHT22;10676;50.848;3.272;2023-04-06T07:41:52;10.00;99.90
21035;DHT22;10676;50.848;3.272;2023-04-06T07:44:18;10.10;99.90
21035;DHT22;10676;50.848;3.272;2023-04-06T07:46:43;10.10;99.90
21035;DHT22;10676;50.848;3.272;2023-04-06T07:49:09;10.20;99.90
21035;DHT22;10676;50.848;3.272;2023-04-06T07:51:37;10.20;99.90
21035;DHT22;10676;50.848;3.272;2023-04-06T07:54:02;10.20;99.90
21035;DHT22;10676;50.848;3.272;2023-04-06T07:56:28;10.20;99.90
21035;DHT22;10676;50.848;3.272;2023-04-06T07:58:54;10.20;99.90
21035;DHT22;10676;50.848;3.272;2023-04-06T08:01:24;10.10;99.90
21035;DHT22;10676;50.848;3.272;2023-04-06T08:03:50;10.10;99.90
21035;DHT22;10676;50.848;3.272;2023-04-06T08:06:16;10.10;99.90
21035;DHT22;10676;50.848;3.272;2023-04-06T08:08:42;10.10;99.90
21035;DHT22;10676;50.848;3.272;2023-04-06T08:11:08;10.20;99.90
21035;DHT22;10676;50.848;3.272;2023-04-06T08:13:35;10.20;99.90
21035;DHT22;10676;50.848;3.272;2023-04-06T08:16:01;10.30;99.90
21035;DHT22;10676;50.848;3.272;2023-04-06T08:18:27;10.30;99.90
21035;DHT22;10676;50.848;3.272;2023-04-06T08:20:52;10.30;99.90
21035;DHT22;10676;50.848;3.272;2023-04-06T08:23:19;10.40;99.90
21035;DHT22;10676;50.848;3.272;2023-04-06T08:25:45;10.40;99.90
21035;DHT22;10676;50.848;3.272;2023-04-06T08:28:11;10.40;99.90
21035;DHT22;10676;50.848;3.272;2023-04-06T08:30:40;10.40;99.90
21035;DHT22;10676;50.848;3.272;2023-04-06T08:33:05;10.50;99.90
21035;DHT22;10676;50.848;3.272;2023-04-06T08:35:31;10.60;99.90
21035;DHT22;10676;50.848;3.272;2023-04-06T08:37:57;10.60;99.90
21035;DHT22;10676;50.848;3.272;2023-04-06T08:40:23;10.60;99.90
21035;DHT22;10676;50.848;3.272;2023-04-06T08:42:52;10.60;99.90
21035;DHT22;10676;50.848;3.272;2023-04-06T08:45:19;10.60;99.90
21035;DHT22;10676;50.848;3.272;2023-04-06T08:47:48;10.60;99.90
21035;DHT22;10676;50.848;3.272;2023-04-06T08:50:16;10.70;99.90
21035;DHT22;10676;50.848;3.272;2023-04-06T08:52:44;10.80;99.90
21035;DHT22;10676;50.848;3.272;2023-04-06T08:55:11;10.90;99.90
21035;DHT22;10676;50.848;3.272;2023-04-06T08:57:37;10.90;99.90
21035;DHT22;10676;50.848;3.272;2023-04-06T09:00:04;10.90;99.90
21035;DHT22;10676;50.848;3.272;2023-04-06T09:02:30;11.00;99.90
21035;DHT22;10676;50.848;3.272;2023-04-06T09:04:56;11.00;99.90
21035;DHT22;10676;50.848;3.272;2023-04-06T09:07:22;11.10;99.90
21035;DHT22;10676;50.848;3.272;2023-04-06T09:09:49;11.20;99.90
21035;DHT22;10676;50.848;3.272;2023-04-06T09:12:40;11.20;99.90
21035;DHT22;10676;50.848;3.272;2023-04-06T09:15:06;11.20;99.90
21035;DHT22;10676;50.848;3.272;2023-04-06T09:17:44;11.20;99.90
21035;DHT22;10676;50.848;3.272;2023-04-06T09:20:10;11.20;99.90
21035;DHT22;10676;50.848;3.272;2023-04-06T09:22:37;11.20;99.90
21035;DHT22;10676;50.848;3.272;2023-04-06T09:25:04;11.20;99.90
21035;DHT22;10676;50.848;3.272;2023-04-06T09:27:31;11.10;99.90
21035;DHT22;10676;50.848;3.272;2023-04-06T09:32:29;11.20;99.90
21035;DHT22;10676;50.848;3.272;2023-04-06T09:35:06;11.20;99.90
21035;DHT22;10676;50.848;3.272;2023-04-06T09:37:32;11.30;99.90
21035;DHT22;10676;50.848;3.272;2023-04-06T09:40:07;11.30;99.90
21035;DHT22;10676;50.848;3.272;2023-04-06T09:42:33;11.30;99.90
21035;DHT22;10676;50.848;3.272;2023-04-06T09:45:03;11.20;99.90
21035;DHT22;10676;50.848;3.272;2023-04-06T09:47:30;11.20;99.90
21035;DHT22;10676;50.848;3.272;2023-04-06T09:50:00;11.20;99.90
21035;DHT22;10676;50.848;3.272;2023-04-06T09:52:51;11.30;99.90
21035;DHT22;10676;50.848;3.272;2023-04-06T09:55:40;11.30;99.90
21035;DHT22;10676;50.848;3.272;2023-04-06T09:58:09;11.50;99.90
21035;DHT22;10676;50.848;3.272;2023-04-06T10:00:49;11.50;99.90
21035;DHT22;10676;50.848;3.272;2023-04-06T10:06:01;11.40;99.90
21035;DHT22;10676;50.848;3.272;2023-04-06T10:08:33;11.40;99.90
21035;DHT22;10676;50.848;3.272;2023-04-06T10:11:00;11.40;99.90
21035;DHT22;10676;50.848;3.272;2023-04-06T10:13:26;11.40;99.90
21035;DHT22;10676;50.848;3.272;2023-04-06T10:15:54;11.30;99.90
21035;DHT22;10676;50.848;3.272;2023-04-06T10:18:21;11.30;99.90
21035;DHT22;10676;50.848;3.272;2023-04-06T10:20:57;11.30;99.90
21035;DHT22;10676;50.848;3.272;2023-04-06T10:23:31;11.40;99.90
21035;DHT22;10676;50.848;3.272;2023-04-06T10:25:59;11.30;99.90
21035;DHT22;10676;50.848;3.272;2023-04-06T10:28:30;11.40;99.90
21035;DHT22;10676;50.848;3.272;2023-04-06T10:31:00;11.40;99.90
21035;DHT22;10676;50.848;3.272;2023-04-06T10:33:27;11.40;99.90
21035;DHT22;10676;50.848;3.272;2023-04-06T10:35:53;11.40;99.90
21035;DHT22;10676;50.848;3.272;2023-04-06T10:38:20;11.40;99.90
21035;DHT22;10676;50.848;3.272;2023-04-06T10:40:47;11.40;99.90
21035;DHT22;10676;50.848;3.272;2023-04-06T10:43:19;11.40;99.90
21035;DHT22;10676;50.848;3.272;2023-04-06T10:45:45;11.40;99.90
21035;DHT22;10676;50.848;3.272;2023-04-06T10:48:19;11.30;99.90
21035;DHT22;10676;50.848;3.272;2023-04-06T10:50:48;11.30;99.90
21035;DHT22;10676;50.848;3.272;2023-04-06T10:53:25;11.30;99.90
21035;DHT22;10676;50.848;3.272;2023-04-06T10:55:52;11.30;99.90
21035;DHT22;10676;50.848;3.272;2023-04-06T10:58:19;11.30;99.90
21035;DHT22;10676;50.848;3.272;2023-04-06T11:00:48;11.30;99.90
21035;DHT22;10676;50.848;3.272;2023-04-06T11:03:15;11.20;99.90
21035;DHT22;10676;50.848;3.272;2023-04-06T11:05:48;11.20;99.90
21035;DHT22;10676;50.848;3.272;2023-04-06T11:08:31;11.20;99.90
21035;DHT22;10676;50.848;3.272;2023-04-06T11:11:11;11.30;99.90
21035;DHT22;10676;50.848;3.272;2023-04-06T11:16:23;11.20;99.90
21035;DHT22;10676;50.848;3.272;2023-04-06T11:18:58;11.20;99.90
21035;DHT22;10676;50.848;3.272;2023-04-06T11:21:38;11.20;99.90
21035;DHT22;10676;50.848;3.272;2023-04-06T11:24:13;11.20;99.90
21035;DHT22;10676;50.848;3.272;2023-04-06T11:26:39;11.30;99.90
21035;DHT22;10676;50.848;3.272;2023-04-06T11:29:06;11.30;99.90
21035;DHT22;10676;50.848;3.272;2023-04-06T11:31:38;11.30;99.90
21035;DHT22;10676;50.848;3.272;2023-04-06T11:34:09;11.40;99.90
21035;DHT22;10676;50.848;3.272;2023-04-06T11:36:35;11.50;99.90
21035;DHT22;10676;50.848;3.272;2023-04-06T11:39:03;11.50;99.90
21035;DHT22;10676;50.848;3.272;2023-04-06T11:41:29;11.60;99.90
21035;DHT22;10676;50.848;3.272;2023-04-06T11:43:55;11.70;99.90
21035;DHT22;10676;50.848;3.272;2023-04-06T11:46:21;11.80;99.90
21035;DHT22;10676;50.848;3.272;2023-04-06T11:48:47;11.90;99.90
21035;DHT22;10676;50.848;3.272;2023-04-06T11:51:22;12.00;99.90
21035;DHT22;10676;50.848;3.272;2023-04-06T11:53:49;12.10;99.90
21035;DHT22;10676;50.848;3.272;2023-04-06T11:56:29;12.20;99.90
21035;DHT22;10676;50.848;3.272;2023-04-06T11:58:56;12.20;99.90
21035;DHT22;10676;50.848;3.272;2023-04-06T12:01:23;12.30;99.90
21035;DHT22;10676;50.848;3.272;2023-04-06T12:03:50;12.30;99.90
21035;DHT22;10676;50.848;3.272;2023-04-06T12:06:16;12.40;99.90
21035;DHT22;10676;50.848;3.272;2023-04-06T12:08:42;12.50;99.90
21035;DHT22;10676;50.848;3.272;2023-04-06T12:11:08;12.60;99.90
21035;DHT22;10676;50.848;3.272;2023-04-06T12:13:34;12.70;99.90
21035;DHT22;10676;50.848;3.272;2023-04-06T12:16:00;12.80;99.90
21035;DHT22;10676;50.848;3.272;2023-04-06T12:18:25;12.90;99.90
21035;DHT22;10676;50.848;3.272;2023-04-06T12:20:52;13.00;99.90
21035;DHT22;10676;50.848;3.272;2023-04-06T12:23:19;13.10;99.90
21035;DHT22;10676;50.848;3.272;2023-04-06T12:25:44;13.10;99.90
21035;DHT22;10676;50.848;3.272;2023-04-06T12:28:10;13.10;99.90
21035;DHT22;10676;50.848;3.272;2023-04-06T12:30:36;13.10;99.90
21035;DHT22;10676;50.848;3.272;2023-04-06T12:33:02;13.10;99.90
21035;DHT22;10676;50.848;3.272;2023-04-06T12:35:28;13.10;99.90
21035;DHT22;10676;50.848;3.272;2023-04-06T12:37:53;13.20;99.90
21035;DHT22;10676;50.848;3.272;2023-04-06T12:40:20;13.20;99.90
21035;DHT22;10676;50.848;3.272;2023-04-06T12:42:46;13.20;99.90
21035;DHT22;10676;50.848;3.272;2023-04-06T12:45:12;13.20;99.90
21035;DHT22;10676;50.848;3.272;2023-04-06T12:47:38;13.10;99.90
21035;DHT22;10676;50.848;3.272;2023-04-06T12:50:05;13.10;99.90
21035;DHT22;10676;50.848;3.272;2023-04-06T12:52:31;13.10;99.90
21035;DHT22;10676;50.848;3.272;2023-04-06T12:55:01;13.10;99.90
21035;DHT22;10676;50.848;3.272;2023-04-06T12:57:27;13.10;99.90
21035;DHT22;10676;50.848;3.272;2023-04-06T12:59:52;13.20;99.90
21035;DHT22;10676;50.848;3.272;2023-04-06T13:02:18;13.20;99.90
21035;DHT22;10676;50.848;3.272;2023-04-06T13:04:45;13.30;99.90
21035;DHT22;10676;50.848;3.272;2023-04-06T13:07:11;13.40;99.90
21035;DHT22;10676;50.848;3.272;2023-04-06T13:09:37;13.50;99.90
21035;DHT22;10676;50.848;3.272;2023-04-06T13:12:03;13.60;99.90
21035;DHT22;10676;50.848;3.272;2023-04-06T13:14:29;13.80;99.90
21035;DHT22;10676;50.848;3.272;2023-04-06T13:16:54;13.70;99.90
21035;DHT22;10676;50.848;3.272;2023-04-06T13:19:20;13.60;99.90
21035;DHT22;10676;50.848;3.272;2023-04-06T13:21:47;13.50;99.90
21035;DHT22;10676;50.848;3.272;2023-04-06T13:24:12;13.30;99.90
21035;DHT22;10676;50.848;3.272;2023-04-06T13:26:38;13.20;99.90
21035;DHT22;10676;50.848;3.272;2023-04-06T13:29:03;13.10;99.90
21035;DHT22;10676;50.848;3.272;2023-04-06T13:31:29;13.00;99.90
21035;DHT22;10676;50.848;3.272;2023-04-06T13:33:55;13.00;99.90
21035;DHT22;10676;50.848;3.272;2023-04-06T13:36:21;13.00;99.90
21035;DHT22;10676;50.848;3.272;2023-04-06T13:38:52;13.00;99.90
21035;DHT22;10676;50.848;3.272;2023-04-06T13:41:21;13.10;99.90
21035;DHT22;10676;50.848;3.272;2023-04-06T13:43:48;13.20;99.90
21035;DHT22;10676;50.848;3.272;2023-04-06T13:46:13;13.40;99.90
21035;DHT22;10676;50.848;3.272;2023-04-06T13:48:40;13.50;99.90
21035;DHT22;10676;50.848;3.272;2023-04-06T13:51:13;13.60;99.90
21035;DHT22;10676;50.848;3.272;2023-04-06T13:53:39;13.70;99.90
21035;DHT22;10676;50.848;3.272;2023-04-06T13:56:06;13.90;99.90
21035;DHT22;10676;50.848;3.272;2023-04-06T13:58:32;14.10;99.90
21035;DHT22;10676;50.848;3.272;2023-04-06T14:01:05;14.40;99.90
21035;DHT22;10676;50.848;3.272;2023-04-06T14:03:32;14.80;99.90
21035;DHT22;10676;50.848;3.272;2023-04-06T14:05:58;15.30;99.90
21035;DHT22;10676;50.848;3.272;2023-04-06T14:08:24;15.70;99.90
21035;DHT22;10676;50.848;3.272;2023-04-06T14:10:50;16.00;99.90
21035;DHT22;10676;50.848;3.272;2023-04-06T14:13:15;16.30;99.90
21035;DHT22;10676;50.848;3.272;2023-04-06T14:15:42;16.50;99.90
21035;DHT22;10676;50.848;3.272;2023-04-06T14:18:08;16.80;99.90
21035;DHT22;10676;50.848;3.272;2023-04-06T14:20:34;16.90;99.90
21035;DHT22;10676;50.848;3.272;2023-04-06T14:23:03;16.90;99.90
21035;DHT22;10676;50.848;3.272;2023-04-06T14:25:29;16.90;99.90
21035;DHT22;10676;50.848;3.272;2023-04-06T14:27:59;16.90;99.90
21035;DHT22;10676;50.848;3.272;2023-04-06T14:30:26;16.90;99.90
21035;DHT22;10676;50.848;3.272;2023-04-06T14:32:57;16.90;99.90
21035;DHT22;10676;50.848;3.272;2023-04-06T14:35:23;16.90;99.90
21035;DHT22;10676;50.848;3.272;2023-04-06T14:37:50;16.70;99.90
21035;DHT22;10676;50.848;3.272;2023-04-06T14:40:15;16.60;99.90
21035;DHT22;10676;50.848;3.272;2023-04-06T14:42:41;16.40;99.90
21035;DHT22;10676;50.848;3.272;2023-04-06T14:45:07;16.40;99.90
21035;DHT22;10676;50.848;3.272;2023-04-06T14:47:33;16.40;99.90
21035;DHT22;10676;50.848;3.272;2023-04-06T14:49:58;16.40;99.90
21035;DHT22;10676;50.848;3.272;2023-04-06T14:52:24;16.40;99.90
21035;DHT22;10676;50.848;3.272;2023-04-06T14:54:50;16.40;99.90
21035;DHT22;10676;50.848;3.272;2023-04-06T14:57:15;16.30;99.90
21035;DHT22;10676;50.848;3.272;2023-04-06T14:59:41;16.20;99.90
21035;DHT22;10676;50.848;3.272;2023-04-06T15:02:06;16.10;99.90
21035;DHT22;10676;50.848;3.272;2023-04-06T15:04:34;15.90;99.90
21035;DHT22;10676;50.848;3.272;2023-04-06T15:07:00;15.80;99.90
21035;DHT22;10676;50.848;3.272;2023-04-06T15:09:26;15.60;99.90
21035;DHT22;10676;50.848;3.272;2023-04-06T15:11:52;15.50;99.90
21035;DHT22;10676;50.848;3.272;2023-04-06T15:14:17;15.40;99.90
21035;DHT22;10676;50.848;3.272;2023-04-06T15:16:43;15.60;99.90
21035;DHT22;10676;50.848;3.272;2023-04-06T15:19:08;15.80;99.90
21035;DHT22;10676;50.848;3.272;2023-04-06T15:21:36;16.10;99.90
21035;DHT22;10676;50.848;3.272;2023-04-06T15:24:01;16.50;99.90
21035;DHT22;10676;50.848;3.272;2023-04-06T15:26:28;16.80;99.90
21035;DHT22;10676;50.848;3.272;2023-04-06T15:28:54;16.90;99.90
21035;DHT22;10676;50.848;3.272;2023-04-06T15:31:20;17.00;99.90
21035;DHT22;10676;50.848;3.272;2023-04-06T15:33:46;17.10;99.90
21035;DHT22;10676;50.848;3.272;2023-04-06T15:36:25;17.10;99.90
21035;DHT22;10676;50.848;3.272;2023-04-06T15:38:52;17.10;99.90
21035;DHT22;10676;50.848;3.272;2023-04-06T15:41:17;17.10;99.90
21035;DHT22;10676;50.848;3.272;2023-04-06T15:43:43;17.10;99.90